Astoria, Illinois
Current Conditions -  °F | °C
As of 11:55 PM on Saturday 22 Nov 2014 (Local Time) from KMQB Reporting Station
Overcast Overcast  
Wind Chill: 53°   Ceiling: 1100
Heat Index: 53°   Visibility: 10mi
Dew Point: 50°   Wind: 12mph
Humidity: 88%   Direction: 190°S
Pressure: 29.81"   Gusts: 22mph
Location:  40.23°N, 90.36°W
Report Text: KMQB 230555Z AUTO 19010G19KT 10SM OVC011 12/10 A2981 RMK AO2 T01170098 10127 20098 401460018
Loading
Personal Weather Stations






























Interactive Weather Map New forecast layout! Learn more

10-Day Weather Forecast

Advertisements
Track Severe Weather on mobile